createdAt,value
2023-10-18T00:01:58.462Z,100020.48
2023-10-18T00:04:25.380Z,100017.89
2023-10-18T00:06:55.423Z,100019.27
2023-10-18T00:09:41.540Z,100018.91
2023-10-18T00:12:08.527Z,100013.90
2023-10-18T00:14:35.512Z,100015.45
2023-10-18T00:17:02.018Z,100010.25
2023-10-18T00:19:28.894Z,100007.65
2023-10-18T00:21:55.860Z,100008.85
2023-10-18T00:24:22.428Z,100005.90
2023-10-18T00:26:48.931Z,100010.02
2023-10-18T00:29:15.903Z,100011.58
2023-10-18T00:31:42.981Z,100012.59
2023-10-18T00:34:10.285Z,100013.64
2023-10-18T00:36:37.215Z,100009.66
2023-10-18T00:39:28.129Z,100006.88
2023-10-18T00:41:55.554Z,100006.20
2023-10-18T00:44:22.643Z,100003.42
2023-10-18T00:46:51.442Z,100005.67
2023-10-18T00:49:19.611Z,99997.38
2023-10-18T00:51:46.932Z,99995.29
2023-10-18T00:54:14.043Z,99996.67
2023-10-18T00:56:44.488Z,99998.08
2023-10-18T00:59:23.048Z,99996.86
2023-10-18T01:01:56.822Z,100004.61
2023-10-18T01:04:25.011Z,100006.33
2023-10-18T01:06:52.260Z,100005.80
2023-10-18T01:09:21.537Z,100007.36
2023-10-18T01:11:48.258Z,100007.70
2023-10-18T01:14:17.775Z,100006.14
2023-10-18T01:16:45.399Z,100008.23
2023-10-18T01:19:15.613Z,100013.07
2023-10-18T01:21:46.566Z,100006.17
2023-10-18T01:24:17.032Z,100005.30
2023-10-18T01:26:44.471Z,100003.55
2023-10-18T01:29:11.486Z,100005.45
2023-10-18T01:31:43.586Z,99999.21
2023-10-18T01:34:11.305Z,99993.33
2023-10-18T01:36:41.465Z,99991.60
2023-10-18T01:39:18.975Z,99993.33
2023-10-18T01:41:49.508Z,99992.63
2023-10-18T01:44:34.401Z,99991.54
2023-10-18T01:47:10.762Z,99988.56
2023-10-18T01:49:41.840Z,99995.44
2023-10-18T01:52:09.119Z,99996.94
2023-10-18T01:54:36.056Z,99996.20
2023-10-18T01:57:02.852Z,99999.27
2023-10-18T01:59:29.997Z,100000.79
2023-10-18T02:01:59.839Z,100003.86
2023-10-18T02:04:40.004Z,100006.27
2023-10-18T02:07:17.874Z,100004.88
2023-10-18T02:09:53.288Z,100005.75
2023-10-18T02:12:20.008Z,100005.75
2023-10-18T02:14:46.836Z,100001.42
2023-10-18T02:17:13.684Z,100004.38
2023-10-18T02:19:40.429Z,100003.52
2023-10-18T02:22:10.155Z,100003.17
2023-10-18T02:24:39.352Z,99997.83
2023-10-18T02:27:10.683Z,99998.15
2023-10-18T02:29:40.308Z,99995.73
2023-10-18T02:32:22.638Z,99997.45
2023-10-18T02:34:53.700Z,99995.85
2023-10-18T02:37:20.741Z,99990.81
2023-10-18T02:39:59.029Z,99988.02
2023-10-18T02:42:33.325Z,99987.48
2023-10-18T02:45:00.192Z,99985.72
2023-10-18T02:47:27.681Z,99986.92
2023-10-18T02:49:54.503Z,99987.60
2023-10-18T02:52:22.092Z,99985.84
2023-10-18T02:54:49.695Z,99982.35
2023-10-18T02:57:16.691Z,99977.83
2023-10-18T02:59:44.420Z,99979.20
2023-10-18T03:02:15.155Z,99979.72
2023-10-18T03:04:44.647Z,99978.86
2023-10-18T03:07:13.956Z,99978.46
2023-10-18T03:09:40.940Z,99979.48
2023-10-18T03:12:14.142Z,99977.91
2023-10-18T03:14:41.817Z,99973.73
2023-10-18T03:17:21.594Z,99968.34
2023-10-18T03:19:51.150Z,99971.61
2023-10-18T03:22:21.657Z,99969.15
2023-10-18T03:24:59.651Z,99970.02
2023-10-18T03:27:34.441Z,99969.66
2023-10-18T03:30:12.919Z,99972.75
2023-10-18T03:32:39.647Z,99965.10
2023-10-18T03:35:10.584Z,99968.90
2023-10-18T03:37:40.042Z,99971.14
2023-10-18T03:40:20.408Z,99969.73
2023-10-18T03:42:47.792Z,99973.66
2023-10-18T03:45:21.555Z,99975.55
2023-10-18T03:48:08.902Z,99979.54
2023-10-18T03:50:41.362Z,99975.05
2023-10-18T03:53:08.009Z,99966.06
2023-10-18T03:55:39.110Z,99964.16
2023-10-18T03:58:06.165Z,99963.98
2023-10-18T04:00:39.016Z,99964.52
2023-10-18T04:03:12.715Z,99964.67
2023-10-18T04:05:40.579Z,99966.55
2023-10-18T04:08:07.482Z,99967.38
2023-10-18T04:10:37.489Z,99972.89
2023-10-18T04:13:05.755Z,99970.45
2023-10-18T04:15:38.547Z,99973.73
2023-10-18T04:18:14.067Z,99971.98
2023-10-18T04:20:44.333Z,99968.36
2023-10-18T04:23:22.088Z,99964.42
2023-10-18T04:26:00.691Z,99966.66
2023-10-18T04:28:29.644Z,99970.46
2023-10-18T04:31:02.529Z,99970.79
2023-10-18T04:33:36.279Z,99970.78
2023-10-18T04:36:13.068Z,99966.30
2023-10-18T04:38:46.382Z,99963.52
2023-10-18T04:41:37.371Z,99964.20
2023-10-18T04:44:24.499Z,99967.32
2023-10-18T04:46:53.256Z,99965.61
2023-10-18T04:49:35.043Z,99965.29
2023-10-18T04:52:05.573Z,99959.80
2023-10-18T04:54:38.974Z,99958.63
2023-10-18T04:57:07.276Z,99959.17
2023-10-18T04:59:46.069Z,99957.47
2023-10-18T05:02:19.031Z,99960.90
2023-10-18T05:04:48.834Z,99964.52
2023-10-18T05:07:16.886Z,99970.91
2023-10-18T05:09:44.636Z,99970.42
2023-10-18T05:12:15.193Z,99973.91
2023-10-18T05:14:54.625Z,99977.77
2023-10-18T05:17:30.935Z,99982.98
2023-10-18T05:19:57.819Z,99985.29
2023-10-18T05:22:25.248Z,99988.81
2023-10-18T05:25:17.619Z,99991.13
2023-10-18T05:27:47.853Z,99988.39
2023-10-18T05:30:26.363Z,99988.13
2023-10-18T05:33:02.796Z,99993.02
2023-10-18T05:35:34.377Z,99995.86
2023-10-18T05:38:07.241Z,99995.23
2023-10-18T05:40:39.620Z,99993.38
2023-10-18T05:43:08.029Z,99989.98
2023-10-18T05:45:34.834Z,99991.42
2023-10-18T05:48:05.770Z,99989.90
2023-10-18T05:50:35.814Z,99991.67
2023-10-18T05:53:11.864Z,99990.34
2023-10-18T05:55:41.405Z,99989.70
2023-10-18T05:58:08.128Z,99990.09
2023-10-18T06:00:37.565Z,99992.55
2023-10-18T06:03:04.281Z,99990.34
2023-10-18T06:05:38.946Z,99994.55
2023-10-18T06:08:08.186Z,99992.00
2023-10-18T06:10:38.905Z,99992.06
2023-10-18T06:13:11.652Z,99990.89
2023-10-18T06:15:45.161Z,99989.23
2023-10-18T06:18:18.087Z,99986.67
2023-10-18T06:20:52.641Z,99988.11
2023-10-18T06:23:25.595Z,99990.21
2023-10-18T06:25:52.547Z,99992.89
2023-10-18T06:28:22.311Z,99993.46
2023-10-18T06:30:53.193Z,99990.73
2023-10-18T06:33:23.493Z,99992.84
2023-10-18T06:35:53.091Z,99992.55
2023-10-18T06:38:22.655Z,99990.34
2023-10-18T06:41:04.530Z,99985.20
2023-10-18T06:43:33.315Z,99991.65
2023-10-18T06:46:00.442Z,99992.74
2023-10-18T06:48:31.515Z,99987.81
2023-10-18T06:51:01.162Z,99989.09
2023-10-18T06:53:29.478Z,99984.65
2023-10-18T06:56:02.555Z,99985.07
2023-10-18T06:58:30.831Z,99981.66
2023-10-18T07:01:04.296Z,99980.46
2023-10-18T07:03:34.490Z,99970.95
2023-10-18T07:06:19.007Z,99964.88
2023-10-18T07:08:46.540Z,99958.80
2023-10-18T07:11:26.306Z,99953.08
2023-10-18T07:14:01.037Z,99949.75
2023-10-18T07:16:27.566Z,99947.11
2023-10-18T07:19:14.528Z,99933.15
2023-10-18T07:21:43.541Z,99930.63
2023-10-18T07:24:11.011Z,99927.23
2023-10-18T07:26:38.341Z,99925.71
2023-10-18T07:29:07.623Z,99918.12
2023-10-18T07:31:38.952Z,99909.81
2023-10-18T07:34:08.713Z,99904.95
2023-10-18T07:36:45.240Z,99898.01
2023-10-18T07:39:17.527Z,99891.91
2023-10-18T07:41:44.590Z,99886.94
2023-10-18T07:44:11.391Z,99879.60
2023-10-18T07:46:40.885Z,99879.71
2023-10-18T07:49:17.382Z,99875.08
2023-10-18T07:51:50.591Z,99868.91
2023-10-18T07:54:17.842Z,99862.33
2023-10-18T07:56:50.969Z,99857.15
2023-10-18T07:59:33.806Z,99853.83
2023-10-18T08:02:13.741Z,99851.22
2023-10-18T08:04:41.378Z,99854.89
2023-10-18T08:07:11.167Z,99855.88
2023-10-18T08:09:40.569Z,99844.42
2023-10-18T08:12:08.652Z,99840.89
2023-10-18T08:14:35.708Z,99830.80
2023-10-18T08:17:30.307Z,99832.45
2023-10-18T08:20:17.364Z,99828.27
2023-10-18T08:22:44.494Z,99831.29
2023-10-18T08:25:22.488Z,99829.24
2023-10-18T08:27:49.434Z,99822.52
2023-10-18T08:30:25.503Z,99822.88
2023-10-18T08:32:52.651Z,99816.44
2023-10-18T08:35:22.690Z,99811.39
2023-10-18T08:37:49.326Z,99807.27
2023-10-18T08:40:28.529Z,99807.63
2023-10-18T08:43:07.712Z,99812.04
2023-10-18T08:45:37.481Z,99808.30
2023-10-18T08:48:12.016Z,99806.23
2023-10-18T08:50:39.897Z,99801.61
2023-10-18T08:53:07.195Z,99798.56
2023-10-18T08:55:46.597Z,99798.90
2023-10-18T08:58:19.198Z,99795.30
2023-10-18T09:00:55.138Z,99796.91
2023-10-18T09:03:24.609Z,99791.58
2023-10-18T09:05:52.801Z,99794.30
2023-10-18T09:08:20.536Z,99783.85
2023-10-18T09:10:50.499Z,99782.62
2023-10-18T09:13:19.619Z,99775.06
2023-10-18T09:15:59.554Z,99768.94
2023-10-18T09:18:31.300Z,99770.05
2023-10-18T09:21:10.481Z,99763.17
2023-10-18T09:23:38.000Z,99757.41
2023-10-18T09:26:10.771Z,99752.00
2023-10-18T09:28:37.659Z,99747.73
2023-10-18T09:31:11.315Z,99742.97
2023-10-18T09:33:38.923Z,99742.17
2023-10-18T09:36:20.161Z,99733.84
2023-10-18T09:38:47.882Z,99730.52
2023-10-18T09:41:15.150Z,99725.98
2023-10-18T09:43:42.127Z,99719.89
2023-10-18T09:46:08.681Z,99719.36
2023-10-18T09:48:41.830Z,99726.22
2023-10-18T09:51:11.843Z,99721.30
2023-10-18T09:53:42.675Z,99709.67
2023-10-18T09:56:10.975Z,99712.09
2023-10-18T09:58:45.800Z,99705.55
2023-10-18T10:01:27.973Z,99706.90
2023-10-18T10:03:57.045Z,99703.12
2023-10-18T10:06:24.182Z,99703.47
2023-10-18T10:09:13.530Z,99701.15
2023-10-18T10:11:46.864Z,99690.81
2023-10-18T10:14:16.507Z,99687.45
2023-10-18T10:16:46.370Z,99681.94
2023-10-18T10:19:13.612Z,99688.64
2023-10-18T10:21:41.040Z,99680.21
2023-10-18T10:24:28.690Z,99677.52
2023-10-18T10:27:30.571Z,99675.23
2023-10-18T10:30:04.236Z,99671.13
2023-10-18T10:32:32.444Z,99680.29
2023-10-18T10:35:15.727Z,99669.19
2023-10-18T10:37:49.401Z,99664.40
2023-10-18T10:40:30.755Z,99656.16
2023-10-18T10:43:03.534Z,99656.33
2023-10-18T10:45:36.086Z,99649.98
2023-10-18T10:48:27.404Z,99650.10
2023-10-18T10:51:09.718Z,99646.40
2023-10-18T10:53:37.414Z,99644.30
2023-10-18T10:56:17.544Z,99647.27
2023-10-18T10:58:48.417Z,99643.11
2023-10-18T11:01:15.749Z,99640.94
2023-10-18T11:03:55.005Z,99639.41
2023-10-18T11:06:23.311Z,99641.14
2023-10-18T11:08:51.192Z,99639.39
2023-10-18T11:11:18.540Z,99634.16
2023-10-18T11:13:46.309Z,99637.81
2023-10-18T11:16:12.930Z,99634.00
2023-10-18T11:18:42.951Z,99631.48
2023-10-18T11:21:25.274Z,99629.95
2023-10-18T11:24:03.384Z,99625.27
2023-10-18T11:26:35.724Z,99620.93
2023-10-18T11:29:06.384Z,99622.16
2023-10-18T11:31:33.361Z,99615.36
2023-10-18T11:34:06.207Z,99617.09
2023-10-18T11:36:36.189Z,99613.23
2023-10-18T11:39:18.012Z,99613.39
2023-10-18T11:41:45.272Z,99610.88
2023-10-18T11:44:17.037Z,99610.70
2023-10-18T11:46:47.046Z,99603.19
2023-10-18T11:49:25.864Z,99597.29
2023-10-18T11:51:54.587Z,99601.77
2023-10-18T11:54:30.710Z,99598.55
2023-10-18T11:56:57.729Z,99594.88
2023-10-18T11:59:25.144Z,99594.36
2023-10-18T12:01:55.572Z,99591.22
2023-10-18T12:04:28.320Z,99591.98
2023-10-18T12:06:58.645Z,99592.85
2023-10-18T12:09:25.620Z,99589.17
2023-10-18T12:11:52.764Z,99587.10
2023-10-18T12:14:19.199Z,99580.45
2023-10-18T12:16:46.007Z,99580.37
2023-10-18T12:19:13.656Z,99580.80
2023-10-18T12:21:40.245Z,99575.98
2023-10-18T12:24:09.354Z,99563.83
2023-10-18T12:26:39.840Z,99566.35
2023-10-18T12:29:06.575Z,99554.63
2023-10-18T12:31:39.735Z,99546.24
2023-10-18T12:34:06.478Z,99545.45
2023-10-18T12:36:33.687Z,99544.02
2023-10-18T12:39:00.432Z,99547.05
2023-10-18T12:41:33.371Z,99544.30
2023-10-18T12:44:00.401Z,99544.56
2023-10-18T12:46:27.196Z,99541.95
2023-10-18T12:48:54.124Z,99541.82
2023-10-18T12:51:20.770Z,99541.70
2023-10-18T12:53:56.789Z,99535.05
2023-10-18T12:56:29.406Z,99533.09
2023-10-18T12:58:58.693Z,99526.48
2023-10-18T13:01:32.491Z,99526.16
2023-10-18T13:04:00.240Z,99522.27
2023-10-18T13:06:35.975Z,99516.35
2023-10-18T13:09:14.863Z,99513.92
2023-10-18T13:11:42.398Z,99509.08
2023-10-18T13:14:12.147Z,99503.86
2023-10-18T13:16:39.014Z,99503.73
2023-10-18T13:19:07.232Z,99498.11
2023-10-18T13:21:34.310Z,99495.81
2023-10-18T13:24:01.317Z,99495.81
2023-10-18T13:26:31.781Z,99487.59
2023-10-18T13:29:01.214Z,99486.80
2023-10-18T13:31:31.451Z,99483.20
2023-10-18T13:34:07.755Z,99477.34
2023-10-18T13:36:34.562Z,99473.88
2023-10-18T13:39:01.179Z,99471.83
2023-10-18T13:41:33.356Z,99468.66
2023-10-18T13:44:00.155Z,99468.27
2023-10-18T13:46:27.957Z,99466.84
2023-10-18T13:48:54.654Z,99466.21
2023-10-18T13:51:21.631Z,99463.06
2023-10-18T13:53:48.428Z,99467.30
2023-10-18T13:56:16.199Z,99464.76
2023-10-18T13:58:42.964Z,99468.61
2023-10-18T14:01:15.309Z,99469.56
2023-10-18T14:03:43.224Z,99463.63
2023-10-18T14:06:12.713Z,99459.10
2023-10-18T14:08:39.249Z,99456.09
2023-10-18T14:11:05.886Z,99454.09
2023-10-18T14:13:32.758Z,99451.77
2023-10-18T14:15:59.419Z,99448.18
2023-10-18T14:18:26.196Z,99446.87
2023-10-18T14:20:53.554Z,99440.81
2023-10-18T14:23:27.688Z,99440.60
2023-10-18T14:25:55.202Z,99441.02
2023-10-18T14:28:22.279Z,99434.64
2023-10-18T14:30:52.592Z,99435.23
2023-10-18T14:33:31.416Z,99431.08
2023-10-18T14:36:06.304Z,99426.42
2023-10-18T14:38:35.026Z,99426.83
2023-10-18T14:41:11.453Z,99428.48
2023-10-18T14:43:47.179Z,99425.36
2023-10-18T14:46:18.428Z,99420.67
2023-10-18T14:48:45.423Z,99418.96
2023-10-18T14:51:12.170Z,99418.64
2023-10-18T14:53:40.834Z,99416.79
2023-10-18T14:56:13.670Z,99416.38
2023-10-18T14:58:40.861Z,99416.00
2023-10-18T15:01:11.614Z,99414.17
2023-10-18T15:03:39.378Z,99411.81
2023-10-18T15:06:07.256Z,99412.41
2023-10-18T15:08:36.368Z,99413.35
2023-10-18T15:11:11.338Z,99411.98
2023-10-18T15:13:38.810Z,99410.51
2023-10-18T15:16:06.466Z,99406.05
2023-10-18T15:18:34.705Z,99407.19
2023-10-18T15:21:01.384Z,99407.59
2023-10-18T15:23:28.836Z,99408.37
2023-10-18T15:26:06.164Z,99405.63
2023-10-18T15:28:33.684Z,99407.26
2023-10-18T15:31:06.920Z,99409.59
2023-10-18T15:33:33.920Z,99411.54
2023-10-18T15:36:00.572Z,99409.63
2023-10-18T15:38:27.200Z,99409.84
2023-10-18T15:40:54.083Z,99408.48
2023-10-18T15:43:20.786Z,99408.15
2023-10-18T15:45:47.950Z,99403.64
2023-10-18T15:48:14.587Z,99405.38
2023-10-18T15:50:41.288Z,99402.73
2023-10-18T15:53:08.350Z,99400.65
2023-10-18T15:55:36.619Z,99401.35
2023-10-18T15:58:03.315Z,99398.91
2023-10-18T16:00:31.968Z,99395.08
2023-10-18T16:02:58.870Z,99390.56
2023-10-18T16:05:25.662Z,99394.82
2023-10-18T16:07:52.940Z,99395.77
2023-10-18T16:10:19.592Z,99391.64
2023-10-18T16:12:49.951Z,99386.65
2023-10-18T16:15:20.930Z,99380.10
2023-10-18T16:17:48.786Z,99373.86
2023-10-18T16:20:18.358Z,99370.59
2023-10-18T16:22:45.435Z,99371.16
2023-10-18T16:25:12.866Z,99366.67
2023-10-18T16:27:40.491Z,99366.36
2023-10-18T16:30:07.864Z,99371.44
2023-10-18T16:32:35.233Z,99372.89
2023-10-18T16:35:02.014Z,99368.89
2023-10-18T16:37:29.047Z,99368.40
2023-10-18T16:39:55.875Z,99371.74
2023-10-18T16:42:23.789Z,99365.66
2023-10-18T16:44:50.454Z,99364.98
2023-10-18T16:47:17.068Z,99366.79
2023-10-18T16:49:44.542Z,99361.61
2023-10-18T16:52:11.872Z,99364.98
2023-10-18T16:54:39.462Z,99362.92
2023-10-18T16:57:06.102Z,99361.59
2023-10-18T16:59:33.220Z,99357.27
2023-10-18T17:02:00.185Z,99354.35
2023-10-18T17:04:26.861Z,99351.63
2023-10-18T17:06:53.663Z,99349.23
2023-10-18T17:09:20.356Z,99349.33
2023-10-18T17:11:47.104Z,99349.77
2023-10-18T17:14:16.551Z,99346.54
2023-10-18T17:16:44.282Z,99343.83
2023-10-18T17:19:12.244Z,99340.41
2023-10-18T17:21:42.920Z,99339.89
2023-10-18T17:24:13.705Z,99343.41
2023-10-18T17:26:40.740Z,99337.52
2023-10-18T17:29:10.142Z,99342.66
2023-10-18T17:31:37.070Z,99339.94
2023-10-18T17:34:11.836Z,99337.75
2023-10-18T17:36:38.409Z,99337.27
2023-10-18T17:39:05.524Z,99334.22
2023-10-18T17:41:32.492Z,99333.98
2023-10-18T17:43:59.151Z,99333.57
2023-10-18T17:46:25.842Z,99331.73
2023-10-18T17:48:52.808Z,99326.77
2023-10-18T17:51:19.469Z,99328.94
2023-10-18T17:53:47.045Z,99327.80
2023-10-18T17:56:14.246Z,99328.23
2023-10-18T17:58:42.215Z,99327.41
2023-10-18T18:01:15.888Z,99327.80
2023-10-18T18:03:43.864Z,99328.03
2023-10-18T18:06:11.982Z,99327.39
2023-10-18T18:08:38.990Z,99325.75
2023-10-18T18:11:05.850Z,99327.73
2023-10-18T18:13:37.762Z,99324.70
2023-10-18T18:16:06.196Z,99324.77
2023-10-18T18:18:32.957Z,99322.05
2023-10-18T18:20:59.734Z,99325.26
2023-10-18T18:23:26.627Z,99324.10
2023-10-18T18:25:56.425Z,99329.91
2023-10-18T18:28:24.321Z,99325.97
2023-10-18T18:30:52.192Z,99323.59
2023-10-18T18:33:19.231Z,99317.90
2023-10-18T18:35:45.920Z,99323.19
2023-10-18T18:38:13.703Z,99324.14
2023-10-18T18:40:40.558Z,99322.15
2023-10-18T18:43:07.155Z,99323.12
2023-10-18T18:45:34.305Z,99325.30
2023-10-18T18:48:01.644Z,99326.58
2023-10-18T18:50:28.446Z,99332.56
2023-10-18T18:52:55.077Z,99327.91
2023-10-18T18:55:21.741Z,99329.88
2023-10-18T18:57:49.464Z,99331.33
2023-10-18T19:00:17.001Z,99333.09
2023-10-18T19:02:44.911Z,99332.09
2023-10-18T19:05:11.754Z,99332.83
2023-10-18T19:07:40.828Z,99332.30
2023-10-18T19:10:10.460Z,99334.26
2023-10-18T19:12:37.678Z,99335.20
2023-10-18T19:15:06.909Z,99333.34
2023-10-18T19:17:34.257Z,99330.25
2023-10-18T19:20:01.402Z,99327.73
2023-10-18T19:22:28.135Z,99327.44
2023-10-18T19:24:54.740Z,99330.66
2023-10-18T19:27:21.388Z,99330.59
2023-10-18T19:29:48.129Z,99330.66
2023-10-18T19:32:14.872Z,99332.31
2023-10-18T19:34:41.562Z,99334.99
2023-10-18T19:37:08.222Z,99333.52
2023-10-18T19:39:35.525Z,99338.68
2023-10-18T19:42:05.880Z,99338.23
2023-10-18T19:44:33.912Z,99335.81
2023-10-18T19:47:00.743Z,99336.91
2023-10-18T19:49:27.496Z,99344.61
2023-10-18T19:51:54.217Z,99338.58
2023-10-18T19:54:20.891Z,99336.55
2023-10-18T19:56:48.384Z,99334.18
2023-10-18T19:59:16.391Z,99330.91
2023-10-18T20:01:45.333Z,99334.61
2023-10-18T20:04:12.094Z,99336.57
2023-10-18T20:06:39.528Z,99341.30
2023-10-18T20:09:06.673Z,99338.55
2023-10-18T20:11:36.761Z,99338.59
2023-10-18T20:14:03.946Z,99337.39
2023-10-18T20:16:31.154Z,99336.36
2023-10-18T20:18:58.218Z,99336.03
2023-10-18T20:21:25.019Z,99333.98
2023-10-18T20:23:52.533Z,99335.55
2023-10-18T20:26:25.822Z,99337.61
2023-10-18T20:28:55.734Z,99337.97
2023-10-18T20:31:22.816Z,99335.73
2023-10-18T20:33:49.243Z,99333.16
2023-10-18T20:36:15.982Z,99335.13
2023-10-18T20:38:42.718Z,99333.08
2023-10-18T20:41:09.465Z,99331.95
2023-10-18T20:43:36.518Z,99334.25
2023-10-18T20:46:19.828Z,99331.17
2023-10-18T20:48:47.442Z,99328.67
2023-10-18T20:51:14.063Z,99329.62
2023-10-18T20:53:41.560Z,99327.95
2023-10-18T20:56:08.457Z,99329.06
2023-10-18T20:58:35.357Z,99331.90
2023-10-18T21:01:12.453Z,99329.19
2023-10-18T21:03:39.709Z,99335.86
2023-10-18T21:06:14.920Z,99332.64
2023-10-18T21:08:42.577Z,99330.47
2023-10-18T21:11:12.324Z,99335.56
2023-10-18T21:13:40.127Z,99339.29
2023-10-18T21:16:11.802Z,99337.40
2023-10-18T21:18:38.701Z,99341.94
2023-10-18T21:21:08.255Z,99344.38
2023-10-18T21:23:35.048Z,99351.51
2023-10-18T21:26:06.345Z,99349.60
2023-10-18T21:28:33.680Z,99353.63
2023-10-18T21:31:06.665Z,99355.56
2023-10-18T21:33:33.478Z,99359.41
2023-10-18T21:36:02.900Z,99357.50
2023-10-18T21:38:29.810Z,99360.27
2023-10-18T21:40:56.490Z,99355.23
2023-10-18T21:43:23.181Z,99361.84
2023-10-18T21:45:49.782Z,99362.21
2023-10-18T21:48:16.723Z,99363.10
2023-10-18T21:50:44.405Z,99362.77
2023-10-18T21:53:10.896Z,99362.11
2023-10-18T21:55:39.547Z,99360.42
2023-10-18T21:58:06.511Z,99358.23
2023-10-18T22:00:38.836Z,99357.94
2023-10-18T22:03:10.971Z,99362.84
2023-10-18T22:05:42.879Z,99359.22
2023-10-18T22:08:15.950Z,99365.67
2023-10-18T22:10:45.544Z,99368.13
2023-10-18T22:13:13.422Z,99368.15
2023-10-18T22:15:47.583Z,99370.08
2023-10-18T22:18:14.976Z,99369.39
2023-10-18T22:20:44.914Z,99372.69
2023-10-18T22:23:12.112Z,99370.44
2023-10-18T22:25:46.779Z,99370.45
2023-10-18T22:28:20.249Z,99368.04
2023-10-18T22:30:49.562Z,99369.41
2023-10-18T22:33:17.127Z,99369.61
2023-10-18T22:35:53.500Z,99371.18
2023-10-18T22:38:24.540Z,99365.63
2023-10-18T22:40:52.419Z,99365.64
2023-10-18T22:43:20.014Z,99367.73
2023-10-18T22:45:52.817Z,99368.77
2023-10-18T22:48:23.032Z,99366.71
2023-10-18T22:50:56.231Z,99367.09
2023-10-18T22:53:31.813Z,99366.22
2023-10-18T22:56:01.381Z,99361.90
2023-10-18T22:58:28.704Z,99365.57
2023-10-18T23:00:55.357Z,99365.25
2023-10-18T23:03:25.306Z,99362.85
2023-10-18T23:06:00.986Z,99365.29
2023-10-18T23:08:36.661Z,99365.16
2023-10-18T23:11:05.241Z,99363.27
2023-10-18T23:13:31.717Z,99366.91
2023-10-18T23:15:58.613Z,99367.80
2023-10-18T23:18:34.871Z,99368.35
2023-10-18T23:21:14.298Z,99367.16
2023-10-18T23:23:54.593Z,99369.94
2023-10-18T23:26:40.690Z,99368.06
2023-10-18T23:29:15.210Z,99366.52
2023-10-18T23:31:57.156Z,99366.38
2023-10-18T23:34:26.734Z,99365.52
2023-10-18T23:37:19.961Z,99364.84
2023-10-18T23:39:52.858Z,99362.27
2023-10-18T23:42:21.321Z,99364.19
2023-10-18T23:44:53.974Z,99363.67
2023-10-18T23:47:38.938Z,99367.69
2023-10-18T23:50:25.623Z,99363.73
2023-10-18T23:52:56.217Z,99364.45
2023-10-18T23:55:33.959Z,99362.75
2023-10-18T23:58:06.064Z,99362.27
